createdAt,value
2022-11-11T00:02:30.465Z,6.20
2022-11-11T00:05:17.261Z,6.10
2022-11-11T00:08:03.729Z,6.10
2022-11-11T00:10:49.939Z,6.10
2022-11-11T00:13:38.395Z,6.10
2022-11-11T00:16:24.327Z,6.10
2022-11-11T00:19:29.832Z,6.10
2022-11-11T00:22:39.798Z,6.10
2022-11-11T00:25:26.253Z,6.10
2022-11-11T00:28:12.243Z,6.10
2022-11-11T00:31:06.539Z,6.00
2022-11-11T00:33:54.343Z,6.00
2022-11-11T00:36:44.542Z,6.00
2022-11-11T00:39:30.887Z,5.90
2022-11-11T00:42:16.577Z,5.90
2022-11-11T00:45:02.535Z,5.90
2022-11-11T00:48:07.352Z,5.90
2022-11-11T00:50:59.456Z,5.90
2022-11-11T00:53:45.644Z,5.80
2022-11-11T00:56:31.595Z,5.80
2022-11-11T00:59:17.726Z,5.80
2022-11-11T01:02:03.551Z,5.80
2022-11-11T01:04:49.289Z,5.80
2022-11-11T01:07:35.682Z,5.80
2022-11-11T01:10:38.454Z,5.80
2022-11-11T01:13:25.613Z,5.80
2022-11-11T01:16:14.925Z,5.70
2022-11-11T01:19:01.055Z,5.70
2022-11-11T01:21:47.142Z,5.60
2022-11-11T01:24:33.130Z,5.60
2022-11-11T01:27:19.147Z,5.60
2022-11-11T01:30:05.717Z,5.60
2022-11-11T01:32:51.543Z,5.50
2022-11-11T01:35:41.719Z,5.50
2022-11-11T01:38:28.219Z,5.50
2022-11-11T01:41:36.798Z,5.40
2022-11-11T01:44:46.754Z,5.40
2022-11-11T01:48:21.603Z,5.40
2022-11-11T01:50:59.599Z,5.40
2022-11-11T01:53:48.658Z,5.40
2022-11-11T01:56:35.235Z,5.30
2022-11-11T01:59:21.639Z,5.30
2022-11-11T02:02:32.120Z,5.30
2022-11-11T02:05:39.292Z,5.20
2022-11-11T02:08:34.937Z,5.20
2022-11-11T02:11:42.371Z,5.20
2022-11-11T02:14:37.752Z,5.20
2022-11-11T02:17:26.256Z,5.10
2022-11-11T02:20:15.691Z,5.10
2022-11-11T02:23:22.771Z,5.10
2022-11-11T02:26:11.007Z,5.00
2022-11-11T02:28:57.980Z,5.00
2022-11-11T02:31:44.072Z,5.00
2022-11-11T02:34:33.157Z,5.00
2022-11-11T02:37:23.355Z,5.00
2022-11-11T02:40:10.954Z,5.00
2022-11-11T02:42:56.637Z,4.90
2022-11-11T02:45:42.798Z,4.90
2022-11-11T02:48:29.132Z,5.00
2022-11-11T02:51:15.396Z,4.90
2022-11-11T02:54:03.410Z,4.90
2022-11-11T02:57:07.938Z,4.90
2022-11-11T02:59:54.012Z,4.90
2022-11-11T03:02:39.838Z,4.90
2022-11-11T03:05:26.073Z,4.90
2022-11-11T03:08:11.811Z,4.90
2022-11-11T03:10:57.572Z,4.90
2022-11-11T03:13:43.503Z,4.90
2022-11-11T03:16:48.259Z,4.80
2022-11-11T03:19:34.528Z,4.80
2022-11-11T03:22:53.921Z,4.80
2022-11-11T03:25:41.031Z,4.80
2022-11-11T03:28:27.228Z,4.80
2022-11-11T03:31:13.285Z,4.70
2022-11-11T03:34:18.356Z,4.70
2022-11-11T03:37:27.572Z,4.70
2022-11-11T03:40:13.861Z,4.70
2022-11-11T03:43:04.442Z,4.70
2022-11-11T03:45:53.215Z,4.70
2022-11-11T03:48:38.840Z,4.60
2022-11-11T03:51:24.803Z,4.70
2022-11-11T03:54:10.963Z,4.70
2022-11-11T03:57:16.694Z,4.70
2022-11-11T04:00:06.459Z,4.70
2022-11-11T04:03:31.074Z,4.70
2022-11-11T04:06:36.072Z,4.80
2022-11-11T04:09:40.782Z,4.70
2022-11-11T04:12:27.614Z,4.80
2022-11-11T04:15:32.170Z,4.80
2022-11-11T04:18:18.134Z,4.80
2022-11-11T04:21:22.815Z,4.80
2022-11-11T04:24:28.804Z,4.80
2022-11-11T04:27:16.987Z,4.80
2022-11-11T04:30:02.768Z,4.80
2022-11-11T04:32:49.039Z,4.80
2022-11-11T04:35:35.090Z,4.90
2022-11-11T04:38:39.576Z,4.80
2022-11-11T04:41:36.180Z,4.80
2022-11-11T04:44:50.382Z,4.80
2022-11-11T04:47:36.469Z,4.80
2022-11-11T04:50:24.449Z,4.70
2022-11-11T04:53:15.193Z,4.70
2022-11-11T04:56:19.657Z,4.70
2022-11-11T04:59:17.460Z,4.70
2022-11-11T05:02:22.092Z,4.60
2022-11-11T05:05:08.325Z,4.60
2022-11-11T05:08:13.298Z,4.50
2022-11-11T05:10:59.337Z,4.50
2022-11-11T05:14:04.093Z,4.50
2022-11-11T05:17:14.586Z,4.40
2022-11-11T05:20:19.160Z,4.40
2022-11-11T05:23:05.341Z,4.40
2022-11-11T05:25:51.333Z,4.40
2022-11-11T05:28:37.226Z,4.40
2022-11-11T05:31:22.910Z,4.40
2022-11-11T05:34:08.894Z,4.40
2022-11-11T05:36:54.927Z,4.40
2022-11-11T05:39:41.062Z,4.40
2022-11-11T05:42:27.234Z,4.40
2022-11-11T05:45:13.400Z,4.40
2022-11-11T05:48:03.005Z,4.50
2022-11-11T05:50:48.767Z,4.50
2022-11-11T05:53:34.901Z,4.50
2022-11-11T05:56:20.893Z,4.50
2022-11-11T05:59:07.676Z,4.50
2022-11-11T06:01:54.301Z,4.40
2022-11-11T06:04:40.396Z,4.50
2022-11-11T06:07:26.122Z,4.50
2022-11-11T06:10:30.642Z,4.50
2022-11-11T06:13:16.302Z,4.50
2022-11-11T06:16:02.223Z,4.50
2022-11-11T06:18:48.170Z,4.60
2022-11-11T06:21:53.919Z,4.60
2022-11-11T06:24:39.722Z,4.60
2022-11-11T06:27:25.741Z,4.70
2022-11-11T06:30:44.112Z,4.60
2022-11-11T06:33:18.075Z,4.70
2022-11-11T06:36:05.245Z,4.60
2022-11-11T06:38:50.999Z,4.70
2022-11-11T06:41:37.110Z,4.70
2022-11-11T06:44:23.196Z,4.70
2022-11-11T06:47:08.975Z,4.70
2022-11-11T06:49:55.158Z,4.70
2022-11-11T06:52:41.708Z,4.80
2022-11-11T06:55:27.781Z,4.80
2022-11-11T06:58:18.672Z,4.80
2022-11-11T07:01:06.140Z,4.90
2022-11-11T07:03:51.787Z,5.00
2022-11-11T07:06:37.417Z,5.00
2022-11-11T07:09:25.835Z,5.10
2022-11-11T07:12:12.721Z,5.20
2022-11-11T07:14:58.895Z,5.30
2022-11-11T07:17:44.737Z,5.40
2022-11-11T07:20:31.284Z,5.50
2022-11-11T07:23:18.278Z,5.60
2022-11-11T07:26:04.308Z,5.70
2022-11-11T07:28:51.472Z,5.70
2022-11-11T07:31:37.433Z,5.80
2022-11-11T07:34:23.284Z,5.90
2022-11-11T07:37:09.190Z,6.00
2022-11-11T07:39:55.047Z,6.00
2022-11-11T07:42:42.371Z,6.20
2022-11-11T07:45:28.195Z,6.30
2022-11-11T07:48:13.610Z,6.40
2022-11-11T07:50:59.862Z,6.50
2022-11-11T07:53:45.675Z,6.60
2022-11-11T07:56:31.771Z,6.70
2022-11-11T07:59:17.596Z,6.90
2022-11-11T08:02:03.495Z,6.90
2022-11-11T08:04:54.756Z,7.10
2022-11-11T08:07:42.663Z,7.20
2022-11-11T08:10:28.509Z,7.40
2022-11-11T08:13:33.150Z,7.50
2022-11-11T08:16:19.204Z,7.60
2022-11-11T08:19:05.034Z,7.70
2022-11-11T08:21:52.349Z,7.90
2022-11-11T08:27:44.531Z,8.10
2022-11-11T08:30:31.675Z,8.20
2022-11-11T08:33:34.674Z,8.40
2022-11-11T08:36:23.615Z,8.50
2022-11-11T08:39:09.813Z,8.60
2022-11-11T08:41:55.461Z,8.70
2022-11-11T08:44:41.162Z,8.90
2022-11-11T08:47:26.878Z,9.00
2022-11-11T08:50:12.734Z,9.10
2022-11-11T08:52:58.667Z,9.20
2022-11-11T08:55:44.871Z,9.40
2022-11-11T08:58:31.109Z,9.70
2022-11-11T09:01:17.076Z,9.80
2022-11-11T09:04:29.779Z,9.90
2022-11-11T09:07:10.117Z,10.10
2022-11-11T09:09:56.013Z,10.40
2022-11-11T09:12:42.983Z,10.60
2022-11-11T09:15:29.435Z,10.80
2022-11-11T09:18:15.517Z,11.00
2022-11-11T09:21:01.943Z,11.10
2022-11-11T09:23:47.898Z,11.30
2022-11-11T09:26:33.710Z,11.50
2022-11-11T09:29:19.880Z,11.80
2022-11-11T09:32:05.950Z,12.00
2022-11-11T09:34:51.367Z,12.30
2022-11-11T09:37:37.405Z,12.40
2022-11-11T09:40:25.300Z,12.60
2022-11-11T09:43:44.783Z,12.70
2022-11-11T09:46:45.538Z,12.80
2022-11-11T09:49:56.287Z,13.00
2022-11-11T09:52:44.753Z,13.10
2022-11-11T09:55:57.298Z,13.20
2022-11-11T09:58:52.857Z,13.30
2022-11-11T10:01:45.146Z,13.30
2022-11-11T10:04:50.146Z,13.50
2022-11-11T10:07:49.247Z,13.50
2022-11-11T10:10:46.974Z,13.70
2022-11-11T10:13:35.593Z,13.70
2022-11-11T10:16:42.636Z,13.60
2022-11-11T10:19:34.348Z,13.80
2022-11-11T10:22:33.782Z,14.00
2022-11-11T10:25:27.051Z,14.30
2022-11-11T10:28:20.341Z,14.60
2022-11-11T10:31:17.548Z,15.10
2022-11-11T10:34:10.152Z,15.80
2022-11-11T10:36:57.799Z,16.70
2022-11-11T10:40:22.077Z,16.90
2022-11-11T10:43:28.437Z,17.20
2022-11-11T10:46:17.260Z,17.40
2022-11-11T10:49:17.700Z,17.70
2022-11-11T10:52:33.416Z,17.60
2022-11-11T10:55:29.966Z,17.90
2022-11-11T10:58:27.777Z,17.70
2022-11-11T11:01:25.798Z,17.80
2022-11-11T11:04:20.943Z,17.90
2022-11-11T11:07:11.312Z,17.90
2022-11-11T11:10:06.177Z,18.30
2022-11-11T11:13:25.047Z,18.60
2022-11-11T11:16:32.309Z,18.70
2022-11-11T11:19:26.615Z,19.20
2022-11-11T11:22:12.613Z,19.60
2022-11-11T11:25:20.474Z,19.70
2022-11-11T11:28:12.975Z,20.10
2022-11-11T11:31:00.838Z,20.30
2022-11-11T11:37:02.583Z,21.40
2022-11-11T11:39:49.021Z,22.10
2022-11-11T11:42:39.491Z,22.20
2022-11-11T11:45:30.197Z,22.00
2022-11-11T11:48:37.700Z,21.80
2022-11-11T11:51:26.543Z,21.80
2022-11-11T11:54:15.057Z,22.00
2022-11-11T11:57:14.288Z,22.20
2022-11-11T12:00:13.804Z,22.10
2022-11-11T12:03:13.886Z,22.00
2022-11-11T12:06:27.011Z,22.40
2022-11-11T12:09:56.274Z,23.00
2022-11-11T12:12:58.724Z,22.50
2022-11-11T12:15:58.801Z,22.40
2022-11-11T12:18:59.895Z,22.00
2022-11-11T12:22:24.256Z,21.60
2022-11-11T12:25:23.121Z,20.70
2022-11-11T12:28:17.710Z,20.10
2022-11-11T12:31:15.083Z,20.00
2022-11-11T12:34:16.921Z,19.60
2022-11-11T12:37:19.192Z,19.90
2022-11-11T12:40:35.785Z,20.30
2022-11-11T12:43:55.157Z,20.50
2022-11-11T12:47:13.092Z,20.50
2022-11-11T12:50:04.555Z,20.80
2022-11-11T12:53:22.796Z,21.00
2022-11-11T12:56:43.126Z,21.00
2022-11-11T13:00:04.000Z,21.50
2022-11-11T13:03:04.501Z,21.80
2022-11-11T13:06:09.050Z,22.10
2022-11-11T13:09:00.473Z,22.30
2022-11-11T13:11:56.952Z,22.50
2022-11-11T13:15:00.323Z,22.90
2022-11-11T13:17:46.112Z,23.60
2022-11-11T13:20:47.961Z,23.90
2022-11-11T13:23:33.542Z,24.00
2022-11-11T13:26:52.188Z,23.60
2022-11-11T13:30:05.358Z,23.40
2022-11-11T13:33:00.259Z,23.90
2022-11-11T13:35:52.464Z,24.10
2022-11-11T13:38:50.576Z,24.90
2022-11-11T13:41:40.908Z,25.20
2022-11-11T13:44:45.961Z,25.40
2022-11-11T13:47:39.259Z,25.40
2022-11-11T13:50:31.249Z,25.50
2022-11-11T13:53:27.236Z,25.50
2022-11-11T13:56:21.866Z,24.90
2022-11-11T13:59:16.413Z,24.40
2022-11-11T14:02:35.561Z,23.50
2022-11-11T14:05:23.122Z,22.90
2022-11-11T14:08:09.195Z,23.60
2022-11-11T14:10:59.206Z,24.30
2022-11-11T14:13:45.312Z,24.80
2022-11-11T14:16:36.804Z,25.50
2022-11-11T14:19:22.730Z,26.40
2022-11-11T14:22:33.806Z,27.00
2022-11-11T14:25:26.280Z,27.00
2022-11-11T14:28:21.366Z,26.70
2022-11-11T14:31:13.623Z,26.30
2022-11-11T14:34:33.413Z,25.30
2022-11-11T14:37:52.878Z,24.70
2022-11-11T14:40:38.962Z,23.60
2022-11-11T14:43:42.756Z,22.90
2022-11-11T14:46:28.784Z,22.10
2022-11-11T14:49:54.444Z,21.50
2022-11-11T14:52:42.792Z,20.60
2022-11-11T14:55:34.942Z,19.90
2022-11-11T14:58:35.208Z,19.10
2022-11-11T15:01:22.239Z,18.60
2022-11-11T15:04:08.463Z,18.30
2022-11-11T15:07:00.056Z,17.80
2022-11-11T15:10:01.068Z,17.30
2022-11-11T15:13:31.199Z,16.80
2022-11-11T15:16:35.204Z,16.50
2022-11-11T15:19:48.012Z,16.60
2022-11-11T15:23:04.740Z,16.80
2022-11-11T15:26:01.187Z,16.70
2022-11-11T15:29:13.317Z,16.20
2022-11-11T15:32:12.495Z,15.70
2022-11-11T15:35:10.078Z,15.30
2022-11-11T15:37:59.982Z,14.70
2022-11-11T15:40:51.253Z,14.20
2022-11-11T15:43:40.168Z,13.80
2022-11-11T15:46:28.826Z,13.50
2022-11-11T15:49:38.733Z,13.20
2022-11-11T15:52:31.574Z,12.80
2022-11-11T15:55:28.727Z,12.60
2022-11-11T15:58:14.602Z,12.30
2022-11-11T16:01:04.726Z,12.10
2022-11-11T16:03:50.746Z,12.00
2022-11-11T16:06:39.296Z,11.80
2022-11-11T16:09:27.954Z,11.70
2022-11-11T16:12:24.662Z,11.60
2022-11-11T16:15:49.118Z,11.40
2022-11-11T16:18:49.690Z,11.20
2022-11-11T16:21:41.134Z,11.10
2022-11-11T16:24:33.957Z,11.00
2022-11-11T16:27:26.397Z,10.90
2022-11-11T16:30:32.916Z,10.80
2022-11-11T16:33:27.544Z,10.80
2022-11-11T16:36:14.133Z,10.70
2022-11-11T16:39:20.970Z,10.70
2022-11-11T16:42:29.751Z,10.60
2022-11-11T16:45:23.788Z,10.60
2022-11-11T16:48:36.723Z,10.60
2022-11-11T16:51:49.020Z,10.60
2022-11-11T16:54:47.850Z,10.50
2022-11-11T16:57:34.946Z,10.50
2022-11-11T17:00:23.985Z,10.40
2022-11-11T17:03:23.017Z,10.40
2022-11-11T17:06:10.034Z,10.40
2022-11-11T17:08:56.541Z,10.40
2022-11-11T17:11:44.137Z,10.40
2022-11-11T17:14:34.215Z,10.40
2022-11-11T17:17:21.817Z,10.30
2022-11-11T17:20:07.896Z,10.30
2022-11-11T17:22:58.452Z,10.30
2022-11-11T17:25:45.107Z,10.20
2022-11-11T17:28:34.717Z,10.10
2022-11-11T17:31:20.725Z,10.10
2022-11-11T17:34:09.647Z,10.00
2022-11-11T17:36:55.570Z,10.00
2022-11-11T17:39:45.132Z,10.00
2022-11-11T17:42:31.965Z,9.90
2022-11-11T17:45:17.750Z,9.90
2022-11-11T17:48:04.261Z,9.90
2022-11-11T17:50:50.285Z,9.80
2022-11-11T17:53:37.415Z,9.80
2022-11-11T17:56:26.982Z,9.70
2022-11-11T17:59:13.338Z,9.70
2022-11-11T18:01:59.657Z,9.60
2022-11-11T18:04:45.456Z,9.60
2022-11-11T18:07:31.366Z,9.60
2022-11-11T18:10:17.518Z,9.50
2022-11-11T18:13:03.417Z,9.40
2022-11-11T18:15:49.508Z,9.40
2022-11-11T18:18:35.761Z,9.40
2022-11-11T18:21:21.702Z,9.40
2022-11-11T18:24:08.744Z,9.30
2022-11-11T18:26:55.619Z,9.30
2022-11-11T18:29:42.484Z,9.30
2022-11-11T18:32:28.417Z,9.20
2022-11-11T18:35:14.144Z,9.10
2022-11-11T18:38:00.009Z,9.10
2022-11-11T18:40:46.129Z,9.10
2022-11-11T18:43:44.347Z,9.00
2022-11-11T18:46:30.690Z,9.00
2022-11-11T18:49:17.422Z,8.90
2022-11-11T18:52:03.779Z,8.80
2022-11-11T18:54:49.810Z,8.80
2022-11-11T18:57:35.606Z,8.80
2022-11-11T19:00:22.403Z,8.70
2022-11-11T19:03:08.368Z,8.70
2022-11-11T19:05:54.250Z,8.60
2022-11-11T19:08:39.826Z,8.60
2022-11-11T19:11:27.480Z,8.50
2022-11-11T19:14:21.441Z,8.50
2022-11-11T19:17:10.065Z,8.40
2022-11-11T19:19:56.110Z,8.40
2022-11-11T19:22:42.188Z,8.40
2022-11-11T19:25:28.436Z,8.30
2022-11-11T19:28:14.410Z,8.40
2022-11-11T19:31:21.306Z,8.30
2022-11-11T19:34:07.377Z,8.30
2022-11-11T19:36:53.354Z,8.30
2022-11-11T19:39:41.892Z,8.20
2022-11-11T19:42:27.728Z,8.20
2022-11-11T19:45:14.113Z,8.20
2022-11-11T19:47:59.997Z,8.20
2022-11-11T19:50:45.954Z,8.10
2022-11-11T19:53:32.176Z,8.10
2022-11-11T19:56:20.281Z,8.10
2022-11-11T19:59:06.483Z,8.10
2022-11-11T20:01:52.346Z,8.10
2022-11-11T20:04:38.452Z,8.00
2022-11-11T20:07:24.481Z,8.00
2022-11-11T20:10:10.894Z,7.90
2022-11-11T20:12:57.494Z,7.90
2022-11-11T20:15:44.651Z,7.80
2022-11-11T20:18:32.381Z,7.80
2022-11-11T20:21:18.105Z,7.80
2022-11-11T20:24:04.361Z,7.70
2022-11-11T20:26:52.361Z,7.60
2022-11-11T20:29:38.646Z,7.60
2022-11-11T20:32:24.670Z,7.50
2022-11-11T20:35:10.469Z,7.50
2022-11-11T20:37:56.621Z,7.40
2022-11-11T20:40:42.322Z,7.30
2022-11-11T20:43:29.519Z,7.30
2022-11-11T20:46:18.649Z,7.20
2022-11-11T20:49:04.850Z,7.20
2022-11-11T20:51:50.999Z,7.20
2022-11-11T20:54:38.232Z,7.20
2022-11-11T20:57:24.126Z,7.20
2022-11-11T21:00:10.490Z,7.20
2022-11-11T21:02:56.579Z,7.20
2022-11-11T21:05:42.572Z,7.20
2022-11-11T21:08:32.751Z,7.10
2022-11-11T21:11:21.982Z,7.10
2022-11-11T21:14:08.455Z,7.10
2022-11-11T21:16:54.413Z,7.00
2022-11-11T21:19:40.113Z,7.00
2022-11-11T21:22:26.021Z,7.00
2022-11-11T21:25:13.118Z,7.00
2022-11-11T21:28:00.170Z,6.90
2022-11-11T21:30:45.877Z,6.90
2022-11-11T21:33:32.107Z,6.90
2022-11-11T21:36:19.281Z,6.90
2022-11-11T21:39:07.080Z,6.80
2022-11-11T21:41:53.091Z,6.80
2022-11-11T21:44:39.144Z,6.80
2022-11-11T21:47:25.339Z,6.70
2022-11-11T21:50:11.019Z,6.70
2022-11-11T21:52:56.769Z,6.60
2022-11-11T21:55:42.444Z,6.60
2022-11-11T21:58:28.949Z,6.60
2022-11-11T22:01:20.282Z,6.60
2022-11-11T22:04:11.699Z,6.60
2022-11-11T22:06:57.458Z,6.60
2022-11-11T22:09:43.545Z,6.50
2022-11-11T22:12:33.571Z,6.50
2022-11-11T22:15:22.169Z,6.50
2022-11-11T22:18:08.158Z,6.50
2022-11-11T22:20:54.041Z,6.40
2022-11-11T22:23:40.538Z,6.40
2022-11-11T22:26:30.776Z,6.40
2022-11-11T22:29:16.756Z,6.30
2022-11-11T22:32:02.584Z,6.40
2022-11-11T22:34:48.469Z,6.30
2022-11-11T22:37:34.292Z,6.30
2022-11-11T22:40:20.357Z,6.30
2022-11-11T22:43:06.063Z,6.30
2022-11-11T22:45:59.060Z,6.20
2022-11-11T22:48:56.544Z,6.20
2022-11-11T22:51:46.292Z,6.10
2022-11-11T22:54:32.482Z,6.20
2022-11-11T22:57:18.325Z,6.20
2022-11-11T23:00:06.422Z,6.10
2022-11-11T23:02:52.002Z,6.10
2022-11-11T23:05:37.929Z,6.10
2022-11-11T23:08:24.132Z,6.10
2022-11-11T23:11:22.036Z,6.00
2022-11-11T23:14:13.544Z,5.90
2022-11-11T23:16:59.381Z,6.00
2022-11-11T23:19:45.016Z,5.90
2022-11-11T23:22:31.101Z,5.90
2022-11-11T23:25:17.287Z,5.90
2022-11-11T23:28:03.944Z,5.80
2022-11-11T23:30:49.740Z,5.80
2022-11-11T23:33:37.999Z,5.80
2022-11-11T23:36:25.985Z,5.80
2022-11-11T23:39:11.985Z,5.80
2022-11-11T23:41:58.058Z,5.80
2022-11-11T23:44:44.210Z,5.80
2022-11-11T23:47:30.379Z,5.80
2022-11-11T23:50:16.183Z,5.80
2022-11-11T23:53:02.270Z,5.70
2022-11-11T23:55:48.286Z,5.70
2022-11-11T23:58:34.368Z,5.70
